sensor_id;sensor_type;location;lat;lon;timestamp;pressure;altitude;pressure_sealevel;temperature;humidity
36454;BME280;22478;51.740;-1.314;2023-12-20T00:01:21;100872.72;;;-0.81;100.00
36454;BME280;22478;51.740;-1.314;2023-12-20T00:03:48;100869.61;;;-0.25;100.00
36454;BME280;22478;51.740;-1.314;2023-12-20T00:06:15;100871.67;;;-1.13;100.00
36454;BME280;22478;51.740;-1.314;2023-12-20T00:08:47;100865.76;;;1.26;100.00
36454;BME280;22478;51.740;-1.314;2023-12-20T00:11:15;100866.38;;;1.38;100.00
36454;BME280;22478;51.740;-1.314;2023-12-20T00:13:42;100861.31;;;-0.21;100.00
36454;BME280;22478;51.740;-1.314;2023-12-20T00:16:10;100862.08;;;-0.56;100.00
36454;BME280;22478;51.740;-1.314;2023-12-20T00:18:37;100853.87;;;-0.23;100.00
36454;BME280;22478;51.740;-1.314;2023-12-20T00:21:05;100859.70;;;0.13;100.00
36454;BME280;22478;51.740;-1.314;2023-12-20T00:23:32;100866.96;;;-0.62;100.00
36454;BME280;22478;51.740;-1.314;2023-12-20T00:26:00;100871.86;;;-1.06;100.00
36454;BME280;22478;51.740;-1.314;2023-12-20T00:28:27;100874.84;;;-2.13;100.00
36454;BME280;22478;51.740;-1.314;2023-12-20T00:30:54;100879.43;;;-1.86;100.00
36454;BME280;22478;51.740;-1.314;2023-12-20T00:33:21;100870.95;;;-2.10;100.00
36454;BME280;22478;51.740;-1.314;2023-12-20T00:35:49;100861.60;;;-0.72;100.00
36454;BME280;22478;51.740;-1.314;2023-12-20T00:38:16;100864.41;;;-0.84;100.00
36454;BME280;22478;51.740;-1.314;2023-12-20T00:40:43;100870.61;;;-0.90;100.00
36454;BME280;22478;51.740;-1.314;2023-12-20T00:43:10;100864.06;;;-1.26;100.00
36454;BME280;22478;51.740;-1.314;2023-12-20T00:45:38;100867.92;;;-0.25;100.00
36454;BME280;22478;51.740;-1.314;2023-12-20T00:48:05;100866.88;;;-0.11;100.00
36454;BME280;22478;51.740;-1.314;2023-12-20T00:50:33;100876.03;;;-1.91;100.00
36454;BME280;22478;51.740;-1.314;2023-12-20T00:53:00;100878.04;;;-1.95;100.00
36454;BME280;22478;51.740;-1.314;2023-12-20T00:55:27;100875.24;;;-1.97;100.00
36454;BME280;22478;51.740;-1.314;2023-12-20T00:57:55;100870.02;;;-1.78;100.00
36454;BME280;22478;51.740;-1.314;2023-12-20T01:00:22;100871.50;;;-0.88;100.00
36454;BME280;22478;51.740;-1.314;2023-12-20T01:02:49;100862.35;;;-1.10;100.00
36454;BME280;22478;51.740;-1.314;2023-12-20T01:05:17;100868.95;;;-1.54;100.00
36454;BME280;22478;51.740;-1.314;2023-12-20T01:07:44;100867.17;;;-1.26;100.00
36454;BME280;22478;51.740;-1.314;2023-12-20T01:10:12;100866.13;;;0.72;100.00
36454;BME280;22478;51.740;-1.314;2023-12-20T01:12:39;100871.98;;;-1.57;100.00
36454;BME280;22478;51.740;-1.314;2023-12-20T01:15:06;100862.76;;;-0.58;100.00
36454;BME280;22478;51.740;-1.314;2023-12-20T01:17:34;100863.25;;;-0.26;100.00
36454;BME280;22478;51.740;-1.314;2023-12-20T01:20:02;100872.49;;;-1.75;100.00
36454;BME280;22478;51.740;-1.314;2023-12-20T01:22:29;100870.82;;;-1.45;100.00
36454;BME280;22478;51.740;-1.314;2023-12-20T01:24:56;100864.05;;;-1.07;100.00
36454;BME280;22478;51.740;-1.314;2023-12-20T01:27:23;100851.51;;;-0.07;100.00
36454;BME280;22478;51.740;-1.314;2023-12-20T01:29:50;100849.51;;;0.56;100.00
36454;BME280;22478;51.740;-1.314;2023-12-20T01:32:17;100848.85;;;1.44;100.00
36454;BME280;22478;51.740;-1.314;2023-12-20T01:34:44;100845.71;;;0.58;100.00
36454;BME280;22478;51.740;-1.314;2023-12-20T01:37:11;100841.90;;;0.15;100.00
36454;BME280;22478;51.740;-1.314;2023-12-20T01:39:38;100844.38;;;1.31;100.00
36454;BME280;22478;51.740;-1.314;2023-12-20T01:42:06;100838.05;;;0.35;100.00
36454;BME280;22478;51.740;-1.314;2023-12-20T01:44:33;100836.74;;;0.58;100.00
36454;BME280;22478;51.740;-1.314;2023-12-20T01:47:00;100839.20;;;0.70;100.00
36454;BME280;22478;51.740;-1.314;2023-12-20T01:49:28;100835.53;;;1.56;100.00
36454;BME280;22478;51.740;-1.314;2023-12-20T01:51:56;100840.28;;;0.46;100.00
36454;BME280;22478;51.740;-1.314;2023-12-20T01:54:23;100841.76;;;-0.27;100.00
36454;BME280;22478;51.740;-1.314;2023-12-20T01:56:51;100842.52;;;0.12;100.00
36454;BME280;22478;51.740;-1.314;2023-12-20T01:59:20;100837.91;;;1.03;100.00
36454;BME280;22478;51.740;-1.314;2023-12-20T02:01:47;100838.98;;;1.16;100.00
36454;BME280;22478;51.740;-1.314;2023-12-20T02:04:15;100833.54;;;-0.02;100.00
36454;BME280;22478;51.740;-1.314;2023-12-20T02:06:43;100827.41;;;1.07;100.00
36454;BME280;22478;51.740;-1.314;2023-12-20T02:09:13;100828.48;;;1.57;100.00
36454;BME280;22478;51.740;-1.314;2023-12-20T02:11:42;100834.07;;;-0.08;100.00
36454;BME280;22478;51.740;-1.314;2023-12-20T02:14:10;100834.82;;;0.96;100.00
36454;BME280;22478;51.740;-1.314;2023-12-20T02:16:37;100838.21;;;0.54;100.00
36454;BME280;22478;51.740;-1.314;2023-12-20T02:19:07;100835.46;;;0.96;100.00
36454;BME280;22478;51.740;-1.314;2023-12-20T02:21:37;100833.09;;;1.58;100.00
36454;BME280;22478;51.740;-1.314;2023-12-20T02:24:05;100826.73;;;0.34;100.00
36454;BME280;22478;51.740;-1.314;2023-12-20T02:26:32;100822.68;;;0.77;100.00
36454;BME280;22478;51.740;-1.314;2023-12-20T02:29:00;100812.74;;;0.36;100.00
36454;BME280;22478;51.740;-1.314;2023-12-20T02:31:28;100812.97;;;0.54;100.00
36454;BME280;22478;51.740;-1.314;2023-12-20T02:33:55;100815.59;;;1.46;100.00
36454;BME280;22478;51.740;-1.314;2023-12-20T02:36:22;100813.15;;;2.42;100.00
36454;BME280;22478;51.740;-1.314;2023-12-20T02:38:49;100813.98;;;0.11;100.00
36454;BME280;22478;51.740;-1.314;2023-12-20T02:41:16;100803.73;;;1.53;100.00
36454;BME280;22478;51.740;-1.314;2023-12-20T02:43:44;100803.37;;;0.42;100.00
36454;BME280;22478;51.740;-1.314;2023-12-20T02:46:12;100797.98;;;1.22;100.00
36454;BME280;22478;51.740;-1.314;2023-12-20T02:48:41;100801.64;;;-0.05;100.00
36454;BME280;22478;51.740;-1.314;2023-12-20T02:51:08;100801.52;;;0.49;100.00
36454;BME280;22478;51.740;-1.314;2023-12-20T02:53:35;100804.81;;;0.71;100.00
36454;BME280;22478;51.740;-1.314;2023-12-20T02:56:03;100807.49;;;0.01;100.00
36454;BME280;22478;51.740;-1.314;2023-12-20T02:58:30;100810.79;;;-1.17;100.00
36454;BME280;22478;51.740;-1.314;2023-12-20T03:00:57;100818.46;;;-1.40;100.00
36454;BME280;22478;51.740;-1.314;2023-12-20T03:03:24;100825.90;;;-0.41;100.00
36454;BME280;22478;51.740;-1.314;2023-12-20T03:05:52;100828.73;;;-0.31;100.00
36454;BME280;22478;51.740;-1.314;2023-12-20T03:08:19;100825.92;;;0.66;100.00
36454;BME280;22478;51.740;-1.314;2023-12-20T03:10:46;100821.65;;;-1.08;100.00
36454;BME280;22478;51.740;-1.314;2023-12-20T03:13:14;100820.96;;;-0.03;100.00
36454;BME280;22478;51.740;-1.314;2023-12-20T03:15:41;100828.01;;;-0.05;100.00
36454;BME280;22478;51.740;-1.314;2023-12-20T03:18:08;100820.94;;;0.87;100.00
36454;BME280;22478;51.740;-1.314;2023-12-20T03:20:35;100833.46;;;-0.34;100.00
36454;BME280;22478;51.740;-1.314;2023-12-20T03:23:03;100842.37;;;-0.38;100.00
36454;BME280;22478;51.740;-1.314;2023-12-20T03:25:30;100844.87;;;0.34;100.00
36454;BME280;22478;51.740;-1.314;2023-12-20T03:27:58;100849.09;;;-0.24;100.00
36454;BME280;22478;51.740;-1.314;2023-12-20T03:30:25;100850.87;;;-1.58;100.00
36454;BME280;22478;51.740;-1.314;2023-12-20T03:32:52;100843.83;;;0.19;100.00
36454;BME280;22478;51.740;-1.314;2023-12-20T03:35:19;100836.38;;;-0.45;100.00
36454;BME280;22478;51.740;-1.314;2023-12-20T03:37:46;100834.72;;;-0.15;100.00
36454;BME280;22478;51.740;-1.314;2023-12-20T03:40:14;100827.70;;;-0.39;100.00
36454;BME280;22478;51.740;-1.314;2023-12-20T03:42:41;100822.26;;;0.53;100.00
36454;BME280;22478;51.740;-1.314;2023-12-20T03:45:09;100818.92;;;-0.50;100.00
36454;BME280;22478;51.740;-1.314;2023-12-20T03:47:36;100812.24;;;0.15;100.00
36454;BME280;22478;51.740;-1.314;2023-12-20T03:50:04;100809.52;;;-0.67;100.00
36454;BME280;22478;51.740;-1.314;2023-12-20T03:52:31;100801.76;;;2.18;100.00
36454;BME280;22478;51.740;-1.314;2023-12-20T03:54:59;100806.75;;;-0.52;100.00
36454;BME280;22478;51.740;-1.314;2023-12-20T03:57:26;100813.67;;;0.01;100.00
36454;BME280;22478;51.740;-1.314;2023-12-20T03:59:53;100809.44;;;0.21;100.00
36454;BME280;22478;51.740;-1.314;2023-12-20T04:02:20;100809.56;;;0.64;100.00
36454;BME280;22478;51.740;-1.314;2023-12-20T04:04:47;100808.26;;;2.27;100.00
36454;BME280;22478;51.740;-1.314;2023-12-20T04:07:15;100806.88;;;2.51;100.00
36454;BME280;22478;51.740;-1.314;2023-12-20T04:09:43;100816.75;;;0.12;100.00
36454;BME280;22478;51.740;-1.314;2023-12-20T04:12:09;100802.69;;;0.71;100.00
36454;BME280;22478;51.740;-1.314;2023-12-20T04:14:36;100797.78;;;1.18;100.00
36454;BME280;22478;51.740;-1.314;2023-12-20T04:17:04;100796.09;;;1.55;100.00
36454;BME280;22478;51.740;-1.314;2023-12-20T04:19:31;100794.25;;;1.72;100.00
36454;BME280;22478;51.740;-1.314;2023-12-20T04:21:58;100802.06;;;0.75;100.00
36454;BME280;22478;51.740;-1.314;2023-12-20T04:24:25;100800.87;;;1.92;100.00
36454;BME280;22478;51.740;-1.314;2023-12-20T04:26:52;100802.34;;;0.47;100.00
36454;BME280;22478;51.740;-1.314;2023-12-20T04:29:19;100801.64;;;0.53;100.00
36454;BME280;22478;51.740;-1.314;2023-12-20T04:31:46;100806.72;;;-1.10;100.00
36454;BME280;22478;51.740;-1.314;2023-12-20T04:34:13;100809.64;;;-1.03;100.00
36454;BME280;22478;51.740;-1.314;2023-12-20T04:36:41;100805.43;;;0.00;100.00
36454;BME280;22478;51.740;-1.314;2023-12-20T04:39:08;100803.22;;;0.86;100.00
36454;BME280;22478;51.740;-1.314;2023-12-20T04:41:35;100810.03;;;0.37;100.00
36454;BME280;22478;51.740;-1.314;2023-12-20T04:44:02;100814.33;;;0.38;100.00
36454;BME280;22478;51.740;-1.314;2023-12-20T04:46:29;100810.64;;;0.97;100.00
36454;BME280;22478;51.740;-1.314;2023-12-20T04:48:57;100802.03;;;1.57;100.00
36454;BME280;22478;51.740;-1.314;2023-12-20T04:51:24;100796.83;;;1.47;100.00
36454;BME280;22478;51.740;-1.314;2023-12-20T04:53:52;100794.34;;;0.56;100.00
36454;BME280;22478;51.740;-1.314;2023-12-20T04:56:19;100793.96;;;1.51;100.00
36454;BME280;22478;51.740;-1.314;2023-12-20T04:58:46;100793.10;;;1.67;100.00
36454;BME280;22478;51.740;-1.314;2023-12-20T05:01:13;100788.17;;;3.19;100.00
36454;BME280;22478;51.740;-1.314;2023-12-20T05:03:41;100786.38;;;2.78;100.00
36454;BME280;22478;51.740;-1.314;2023-12-20T05:06:09;100781.60;;;1.18;100.00
36454;BME280;22478;51.740;-1.314;2023-12-20T05:08:36;100778.24;;;2.61;100.00
36454;BME280;22478;51.740;-1.314;2023-12-20T05:11:04;100775.01;;;0.15;100.00
36454;BME280;22478;51.740;-1.314;2023-12-20T05:13:32;100773.19;;;1.68;100.00
36454;BME280;22478;51.740;-1.314;2023-12-20T05:15:59;100772.78;;;1.03;100.00
36454;BME280;22478;51.740;-1.314;2023-12-20T05:18:26;100773.38;;;0.92;100.00
36454;BME280;22478;51.740;-1.314;2023-12-20T05:20:53;100760.28;;;2.72;100.00
36454;BME280;22478;51.740;-1.314;2023-12-20T05:23:20;100754.56;;;0.27;100.00
36454;BME280;22478;51.740;-1.314;2023-12-20T05:25:47;100766.31;;;-0.20;100.00
36454;BME280;22478;51.740;-1.314;2023-12-20T05:28:15;100760.06;;;0.69;100.00
36454;BME280;22478;51.740;-1.314;2023-12-20T05:30:43;100761.62;;;0.39;100.00
36454;BME280;22478;51.740;-1.314;2023-12-20T05:33:09;100760.86;;;-1.03;100.00
36454;BME280;22478;51.740;-1.314;2023-12-20T05:35:37;100756.91;;;0.89;100.00
36454;BME280;22478;51.740;-1.314;2023-12-20T05:38:04;100755.44;;;-0.10;100.00
36454;BME280;22478;51.740;-1.314;2023-12-20T05:40:31;100757.37;;;0.07;100.00
36454;BME280;22478;51.740;-1.314;2023-12-20T05:42:58;100762.62;;;-0.21;100.00
36454;BME280;22478;51.740;-1.314;2023-12-20T05:45:26;100764.76;;;-0.68;100.00
36454;BME280;22478;51.740;-1.314;2023-12-20T05:47:53;100760.38;;;-0.28;100.00
36454;BME280;22478;51.740;-1.314;2023-12-20T05:50:20;100760.85;;;-1.08;100.00
36454;BME280;22478;51.740;-1.314;2023-12-20T05:52:47;100764.03;;;-1.54;100.00
36454;BME280;22478;51.740;-1.314;2023-12-20T05:55:14;100757.12;;;-0.29;100.00
36454;BME280;22478;51.740;-1.314;2023-12-20T05:57:42;100752.75;;;0.58;100.00
36454;BME280;22478;51.740;-1.314;2023-12-20T06:00:10;100756.10;;;-0.14;100.00
36454;BME280;22478;51.740;-1.314;2023-12-20T06:02:38;100752.48;;;-0.64;100.00
36454;BME280;22478;51.740;-1.314;2023-12-20T06:05:06;100753.42;;;0.01;100.00
36454;BME280;22478;51.740;-1.314;2023-12-20T06:07:33;100766.02;;;-0.97;100.00
36454;BME280;22478;51.740;-1.314;2023-12-20T06:10:01;100770.16;;;-1.77;100.00
36454;BME280;22478;51.740;-1.314;2023-12-20T06:12:28;100765.45;;;-0.78;100.00
36454;BME280;22478;51.740;-1.314;2023-12-20T06:14:55;100767.13;;;-0.29;100.00
36454;BME280;22478;51.740;-1.314;2023-12-20T06:17:22;100767.74;;;1.54;100.00
36454;BME280;22478;51.740;-1.314;2023-12-20T06:19:49;100770.28;;;-1.55;100.00
36454;BME280;22478;51.740;-1.314;2023-12-20T06:22:17;100767.55;;;-0.10;100.00
36454;BME280;22478;51.740;-1.314;2023-12-20T06:24:44;100761.18;;;0.72;100.00
36454;BME280;22478;51.740;-1.314;2023-12-20T06:27:11;100768.57;;;-0.21;100.00
36454;BME280;22478;51.740;-1.314;2023-12-20T06:29:38;100767.00;;;0.39;100.00
36454;BME280;22478;51.740;-1.314;2023-12-20T06:32:06;100758.05;;;1.15;100.00
36454;BME280;22478;51.740;-1.314;2023-12-20T06:34:33;100755.69;;;2.22;100.00
36454;BME280;22478;51.740;-1.314;2023-12-20T06:37:00;100755.20;;;0.36;100.00
36454;BME280;22478;51.740;-1.314;2023-12-20T06:39:28;100753.67;;;0.66;100.00
36454;BME280;22478;51.740;-1.314;2023-12-20T06:41:55;100746.31;;;1.74;100.00
36454;BME280;22478;51.740;-1.314;2023-12-20T06:44:22;100753.81;;;1.90;100.00
36454;BME280;22478;51.740;-1.314;2023-12-20T06:46:49;100754.65;;;1.07;100.00
36454;BME280;22478;51.740;-1.314;2023-12-20T06:49:16;100747.66;;;1.91;100.00
36454;BME280;22478;51.740;-1.314;2023-12-20T06:51:43;100752.52;;;1.15;100.00
36454;BME280;22478;51.740;-1.314;2023-12-20T06:54:10;100753.56;;;0.52;100.00
36454;BME280;22478;51.740;-1.314;2023-12-20T06:56:37;100749.70;;;0.12;100.00
36454;BME280;22478;51.740;-1.314;2023-12-20T06:59:04;100737.92;;;-0.06;100.00
36454;BME280;22478;51.740;-1.314;2023-12-20T07:01:31;100725.21;;;0.03;100.00
36454;BME280;22478;51.740;-1.314;2023-12-20T07:03:59;100720.54;;;-0.37;100.00
36454;BME280;22478;51.740;-1.314;2023-12-20T07:06:26;100711.49;;;0.34;100.00
36454;BME280;22478;51.740;-1.314;2023-12-20T07:08:53;100696.10;;;1.17;100.00
36454;BME280;22478;51.740;-1.314;2023-12-20T07:11:20;100683.60;;;0.38;100.00
36454;BME280;22478;51.740;-1.314;2023-12-20T07:13:47;100691.22;;;-0.03;100.00
36454;BME280;22478;51.740;-1.314;2023-12-20T07:16:15;100687.14;;;-0.22;100.00
36454;BME280;22478;51.740;-1.314;2023-12-20T07:18:43;100685.12;;;0.32;100.00
36454;BME280;22478;51.740;-1.314;2023-12-20T07:21:10;100693.74;;;0.87;100.00
36454;BME280;22478;51.740;-1.314;2023-12-20T07:23:37;100695.78;;;0.38;100.00
36454;BME280;22478;51.740;-1.314;2023-12-20T07:26:05;100695.86;;;0.30;100.00
36454;BME280;22478;51.740;-1.314;2023-12-20T07:28:32;100708.31;;;-1.09;100.00
36454;BME280;22478;51.740;-1.314;2023-12-20T07:30:59;100712.77;;;0.32;100.00
36454;BME280;22478;51.740;-1.314;2023-12-20T07:33:26;100704.96;;;-0.97;100.00
36454;BME280;22478;51.740;-1.314;2023-12-20T07:35:54;100715.62;;;-1.57;100.00
36454;BME280;22478;51.740;-1.314;2023-12-20T07:38:21;100721.71;;;-0.82;100.00
36454;BME280;22478;51.740;-1.314;2023-12-20T07:40:48;100716.73;;;-0.58;100.00
36454;BME280;22478;51.740;-1.314;2023-12-20T07:43:15;100708.02;;;0.07;100.00
36454;BME280;22478;51.740;-1.314;2023-12-20T07:45:43;100718.67;;;-0.06;100.00
36454;BME280;22478;51.740;-1.314;2023-12-20T07:48:10;100737.83;;;0.39;100.00
36454;BME280;22478;51.740;-1.314;2023-12-20T07:50:37;100740.67;;;-1.22;100.00
36454;BME280;22478;51.740;-1.314;2023-12-20T07:53:05;100748.98;;;0.18;100.00
36454;BME280;22478;51.740;-1.314;2023-12-20T07:55:32;100757.30;;;-0.97;100.00
36454;BME280;22478;51.740;-1.314;2023-12-20T07:57:59;100758.13;;;-0.54;100.00
36454;BME280;22478;51.740;-1.314;2023-12-20T08:00:26;100756.51;;;-0.46;100.00
36454;BME280;22478;51.740;-1.314;2023-12-20T08:02:53;100759.99;;;1.20;100.00
36454;BME280;22478;51.740;-1.314;2023-12-20T08:05:20;100756.59;;;0.74;100.00
36454;BME280;22478;51.740;-1.314;2023-12-20T08:07:48;100753.07;;;0.58;100.00
36454;BME280;22478;51.740;-1.314;2023-12-20T08:10:15;100751.01;;;0.99;100.00
36454;BME280;22478;51.740;-1.314;2023-12-20T08:12:43;100765.93;;;0.37;100.00
36454;BME280;22478;51.740;-1.314;2023-12-20T08:15:10;100768.41;;;0.58;100.00
36454;BME280;22478;51.740;-1.314;2023-12-20T08:17:37;100762.72;;;1.03;100.00
36454;BME280;22478;51.740;-1.314;2023-12-20T08:20:05;100761.61;;;1.50;100.00
36454;BME280;22478;51.740;-1.314;2023-12-20T08:22:33;100761.79;;;1.78;100.00
36454;BME280;22478;51.740;-1.314;2023-12-20T08:25:00;100783.92;;;0.51;100.00
36454;BME280;22478;51.740;-1.314;2023-12-20T08:27:28;100777.11;;;1.09;100.00
36454;BME280;22478;51.740;-1.314;2023-12-20T08:29:55;100777.23;;;0.39;100.00
36454;BME280;22478;51.740;-1.314;2023-12-20T08:32:22;100781.89;;;1.85;100.00
36454;BME280;22478;51.740;-1.314;2023-12-20T08:34:51;100776.69;;;1.22;100.00
36454;BME280;22478;51.740;-1.314;2023-12-20T08:37:19;100765.32;;;0.53;100.00
36454;BME280;22478;51.740;-1.314;2023-12-20T08:39:46;100758.21;;;0.15;100.00
36454;BME280;22478;51.740;-1.314;2023-12-20T08:42:13;100758.29;;;-0.16;100.00
36454;BME280;22478;51.740;-1.314;2023-12-20T08:44:40;100753.96;;;-0.27;100.00
36454;BME280;22478;51.740;-1.314;2023-12-20T08:47:07;100757.21;;;-0.07;100.00
36454;BME280;22478;51.740;-1.314;2023-12-20T08:49:34;100756.66;;;0.16;100.00
36454;BME280;22478;51.740;-1.314;2023-12-20T08:52:02;100750.05;;;0.99;100.00
36454;BME280;22478;51.740;-1.314;2023-12-20T08:54:29;100748.45;;;1.51;100.00
36454;BME280;22478;51.740;-1.314;2023-12-20T08:56:56;100745.05;;;1.34;100.00
36454;BME280;22478;51.740;-1.314;2023-12-20T08:59:23;100745.11;;;0.40;100.00
36454;BME280;22478;51.740;-1.314;2023-12-20T09:01:50;100745.46;;;0.71;100.00
36454;BME280;22478;51.740;-1.314;2023-12-20T09:04:17;100740.28;;;1.18;100.00
36454;BME280;22478;51.740;-1.314;2023-12-20T09:06:44;100747.70;;;0.08;100.00
36454;BME280;22478;51.740;-1.314;2023-12-20T09:09:11;100746.82;;;1.44;100.00
36454;BME280;22478;51.740;-1.314;2023-12-20T09:11:39;100748.06;;;2.24;100.00
36454;BME280;22478;51.740;-1.314;2023-12-20T09:14:06;100749.13;;;1.92;100.00
36454;BME280;22478;51.740;-1.314;2023-12-20T09:16:33;100750.06;;;1.68;100.00
36454;BME280;22478;51.740;-1.314;2023-12-20T09:19:00;100757.33;;;2.01;100.00
36454;BME280;22478;51.740;-1.314;2023-12-20T09:21:27;100755.59;;;1.89;100.00
36454;BME280;22478;51.740;-1.314;2023-12-20T09:23:54;100755.04;;;2.48;100.00
36454;BME280;22478;51.740;-1.314;2023-12-20T09:26:21;100751.58;;;2.66;100.00
36454;BME280;22478;51.740;-1.314;2023-12-20T09:28:48;100753.30;;;3.33;100.00
36454;BME280;22478;51.740;-1.314;2023-12-20T09:31:15;100756.10;;;0.89;100.00
36454;BME280;22478;51.740;-1.314;2023-12-20T09:33:43;100752.93;;;2.50;100.00
36454;BME280;22478;51.740;-1.314;2023-12-20T09:36:11;100753.88;;;2.37;100.00
36454;BME280;22478;51.740;-1.314;2023-12-20T09:38:39;100765.03;;;1.56;100.00
36454;BME280;22478;51.740;-1.314;2023-12-20T09:41:06;100762.20;;;2.07;100.00
36454;BME280;22478;51.740;-1.314;2023-12-20T09:43:37;100758.18;;;2.40;100.00
36454;BME280;22478;51.740;-1.314;2023-12-20T09:46:06;100743.64;;;3.14;100.00
36454;BME280;22478;51.740;-1.314;2023-12-20T09:48:33;100744.50;;;3.04;100.00
36454;BME280;22478;51.740;-1.314;2023-12-20T09:51:01;100745.48;;;4.27;100.00
36454;BME280;22478;51.740;-1.314;2023-12-20T09:53:29;100736.09;;;3.37;100.00
36454;BME280;22478;51.740;-1.314;2023-12-20T09:55:59;100757.12;;;2.44;100.00
36454;BME280;22478;51.740;-1.314;2023-12-20T09:58:26;100744.77;;;3.49;100.00
36454;BME280;22478;51.740;-1.314;2023-12-20T10:00:54;100742.57;;;3.02;100.00
36454;BME280;22478;51.740;-1.314;2023-12-20T10:03:25;100748.04;;;2.85;100.00
36454;BME280;22478;51.740;-1.314;2023-12-20T10:05:54;100765.83;;;2.14;100.00
36454;BME280;22478;51.740;-1.314;2023-12-20T10:08:24;100755.41;;;2.06;100.00
36454;BME280;22478;51.740;-1.314;2023-12-20T10:10:52;100760.27;;;0.68;100.00
36454;BME280;22478;51.740;-1.314;2023-12-20T10:13:19;100766.59;;;1.99;100.00
36454;BME280;22478;51.740;-1.314;2023-12-20T10:15:49;100768.73;;;2.27;100.00
36454;BME280;22478;51.740;-1.314;2023-12-20T10:18:17;100779.33;;;1.40;100.00
36454;BME280;22478;51.740;-1.314;2023-12-20T10:20:45;100777.90;;;2.27;100.00
36454;BME280;22478;51.740;-1.314;2023-12-20T10:23:13;100779.11;;;2.87;100.00
36454;BME280;22478;51.740;-1.314;2023-12-20T10:25:43;100776.51;;;2.54;100.00
36454;BME280;22478;51.740;-1.314;2023-12-20T10:28:12;100775.66;;;2.17;100.00
36454;BME280;22478;51.740;-1.314;2023-12-20T10:30:40;100780.11;;;1.86;100.00
36454;BME280;22478;51.740;-1.314;2023-12-20T10:33:09;100770.83;;;1.85;100.00
36454;BME280;22478;51.740;-1.314;2023-12-20T10:35:38;100767.98;;;0.97;100.00
36454;BME280;22478;51.740;-1.314;2023-12-20T10:38:06;100763.10;;;3.60;100.00
36454;BME280;22478;51.740;-1.314;2023-12-20T10:40:35;100755.61;;;3.94;100.00
36454;BME280;22478;51.740;-1.314;2023-12-20T10:43:03;100744.24;;;1.91;100.00
36454;BME280;22478;51.740;-1.314;2023-12-20T10:45:30;100723.96;;;3.53;100.00
36454;BME280;22478;51.740;-1.314;2023-12-20T10:47:58;100720.79;;;1.34;100.00
36454;BME280;22478;51.740;-1.314;2023-12-20T10:50:26;100710.96;;;3.05;100.00
36454;BME280;22478;51.740;-1.314;2023-12-20T10:52:55;100708.99;;;2.43;100.00
36454;BME280;22478;51.740;-1.314;2023-12-20T10:55:22;100700.24;;;3.10;100.00
36454;BME280;22478;51.740;-1.314;2023-12-20T10:57:51;100692.27;;;3.19;100.00
36454;BME280;22478;51.740;-1.314;2023-12-20T11:00:19;100694.16;;;0.69;100.00
36454;BME280;22478;51.740;-1.314;2023-12-20T11:02:49;100702.47;;;1.40;100.00
36454;BME280;22478;51.740;-1.314;2023-12-20T11:05:25;100682.50;;;2.43;100.00
36454;BME280;22478;51.740;-1.314;2023-12-20T11:07:58;100672.35;;;3.68;100.00
36454;BME280;22478;51.740;-1.314;2023-12-20T11:10:31;100670.38;;;4.14;100.00
36454;BME280;22478;51.740;-1.314;2023-12-20T11:13:08;100661.81;;;2.62;100.00
36454;BME280;22478;51.740;-1.314;2023-12-20T11:15:36;100665.44;;;2.32;100.00
36454;BME280;22478;51.740;-1.314;2023-12-20T11:18:04;100666.02;;;2.52;100.00
36454;BME280;22478;51.740;-1.314;2023-12-20T11:20:37;100661.94;;;2.15;100.00
36454;BME280;22478;51.740;-1.314;2023-12-20T11:23:05;100654.80;;;3.46;100.00
36454;BME280;22478;51.740;-1.314;2023-12-20T11:25:46;100653.00;;;2.36;100.00
36454;BME280;22478;51.740;-1.314;2023-12-20T11:28:14;100643.26;;;3.08;100.00
36454;BME280;22478;51.740;-1.314;2023-12-20T11:30:42;100644.95;;;2.32;100.00
36454;BME280;22478;51.740;-1.314;2023-12-20T11:33:09;100634.08;;;2.30;100.00
36454;BME280;22478;51.740;-1.314;2023-12-20T11:35:37;100630.15;;;1.96;100.00
36454;BME280;22478;51.740;-1.314;2023-12-20T11:38:04;100632.78;;;1.23;100.00
36454;BME280;22478;51.740;-1.314;2023-12-20T11:40:34;100624.77;;;1.95;100.00
36454;BME280;22478;51.740;-1.314;2023-12-20T11:43:03;100626.08;;;1.56;100.00
36454;BME280;22478;51.740;-1.314;2023-12-20T11:45:30;100600.75;;;2.82;100.00
36454;BME280;22478;51.740;-1.314;2023-12-20T11:47:57;100592.70;;;2.54;100.00
36454;BME280;22478;51.740;-1.314;2023-12-20T11:50:25;100583.69;;;4.77;100.00
36454;BME280;22478;51.740;-1.314;2023-12-20T11:52:53;100592.55;;;3.39;100.00
36454;BME280;22478;51.740;-1.314;2023-12-20T11:55:21;100597.38;;;1.04;100.00
36454;BME280;22478;51.740;-1.314;2023-12-20T11:57:50;100574.17;;;2.75;100.00
36454;BME280;22478;51.740;-1.314;2023-12-20T12:00:18;100573.67;;;2.78;100.00
36454;BME280;22478;51.740;-1.314;2023-12-20T12:02:55;100575.07;;;2.39;100.00
36454;BME280;22478;51.740;-1.314;2023-12-20T12:05:23;100565.66;;;3.04;100.00
36454;BME280;22478;51.740;-1.314;2023-12-20T12:07:50;100558.59;;;4.69;100.00
36454;BME280;22478;51.740;-1.314;2023-12-20T12:10:17;100569.27;;;3.83;100.00
36454;BME280;22478;51.740;-1.314;2023-12-20T12:12:44;100566.01;;;2.42;100.00
36454;BME280;22478;51.740;-1.314;2023-12-20T12:15:11;100568.72;;;4.76;100.00
36454;BME280;22478;51.740;-1.314;2023-12-20T12:17:38;100559.20;;;2.72;100.00
36454;BME280;22478;51.740;-1.314;2023-12-20T12:20:06;100555.89;;;4.22;100.00
36454;BME280;22478;51.740;-1.314;2023-12-20T12:22:33;100549.75;;;2.37;100.00
36454;BME280;22478;51.740;-1.314;2023-12-20T12:25:09;100540.69;;;4.06;100.00
36454;BME280;22478;51.740;-1.314;2023-12-20T12:27:39;100538.24;;;3.62;100.00
36454;BME280;22478;51.740;-1.314;2023-12-20T12:30:07;100526.61;;;3.89;100.00
36454;BME280;22478;51.740;-1.314;2023-12-20T12:32:35;100516.12;;;3.66;100.00
36454;BME280;22478;51.740;-1.314;2023-12-20T12:35:03;100519.36;;;2.64;100.00
36454;BME280;22478;51.740;-1.314;2023-12-20T12:37:30;100511.59;;;2.88;100.00
36454;BME280;22478;51.740;-1.314;2023-12-20T12:39:57;100505.19;;;2.14;100.00